createdAt,value
2023-10-09T00:00:55.486Z,9.430336
2023-10-09T00:01:55.510Z,9.430326
2023-10-09T00:02:55.543Z,9.430287
2023-10-09T00:03:55.582Z,9.430299
2023-10-09T00:04:55.440Z,9.430300
2023-10-09T00:05:55.713Z,9.430305
2023-10-09T00:06:56.548Z,9.430314
2023-10-09T00:07:55.373Z,9.430319
2023-10-09T00:08:55.422Z,9.430320
2023-10-09T00:09:55.363Z,9.430315
2023-10-09T00:10:56.188Z,9.430305
2023-10-09T00:11:55.348Z,9.430292
2023-10-09T00:12:55.353Z,9.430307
2023-10-09T00:13:55.313Z,9.430303
2023-10-09T00:14:55.356Z,9.430305
2023-10-09T00:15:55.396Z,9.430304
2023-10-09T00:16:55.339Z,9.430350
2023-10-09T00:17:55.324Z,9.430329
2023-10-09T00:18:55.285Z,9.430334
2023-10-09T00:19:55.283Z,9.430336
2023-10-09T00:20:55.253Z,9.430329
2023-10-09T00:21:55.226Z,9.430342
2023-10-09T00:22:55.234Z,9.430329
2023-10-09T00:23:55.257Z,9.430358
2023-10-09T00:24:55.205Z,9.430320
2023-10-09T00:25:55.270Z,9.430330
2023-10-09T00:26:55.185Z,9.430353
2023-10-09T00:27:55.146Z,9.430356
2023-10-09T00:28:55.163Z,9.430324
2023-10-09T00:29:55.166Z,9.430319
2023-10-09T00:30:55.246Z,9.430303
2023-10-09T00:31:55.111Z,9.430310
2023-10-09T00:32:55.175Z,9.430294
2023-10-09T00:33:55.121Z,9.430305
2023-10-09T00:34:55.554Z,9.430347
2023-10-09T00:35:56.189Z,9.430278
2023-10-09T00:36:55.836Z,9.430314
2023-10-09T00:37:55.965Z,9.430338
2023-10-09T00:38:55.044Z,9.430356
2023-10-09T00:39:55.021Z,9.430326
2023-10-09T00:40:55.055Z,9.430321
2023-10-09T00:41:55.067Z,9.430303
2023-10-09T00:42:54.981Z,9.430308
2023-10-09T00:43:55.363Z,9.430328
2023-10-09T00:44:56.352Z,9.430325
2023-10-09T00:45:54.994Z,9.430352
2023-10-09T00:46:54.960Z,9.430397
2023-10-09T00:47:54.979Z,9.430326
2023-10-09T00:48:54.995Z,9.430340
2023-10-09T00:49:54.888Z,9.430314
2023-10-09T00:50:54.931Z,9.430315
2023-10-09T00:51:54.885Z,9.430300
2023-10-09T00:52:54.898Z,9.430315
2023-10-09T00:53:54.907Z,9.430313
2023-10-09T00:54:54.872Z,9.430316
2023-10-09T00:55:54.838Z,9.430309
2023-10-09T00:56:54.841Z,9.430270
2023-10-09T00:57:54.832Z,9.430258
2023-10-09T00:58:54.800Z,9.430272
2023-10-09T00:59:54.813Z,9.430347
2023-10-09T01:00:55.644Z,9.430355
2023-10-09T01:01:54.825Z,9.430322
2023-10-09T01:02:54.858Z,9.430307
2023-10-09T01:03:54.907Z,9.430298
2023-10-09T01:04:54.741Z,9.430308
2023-10-09T01:05:54.769Z,9.430337
2023-10-09T01:06:54.713Z,9.430355
2023-10-09T01:07:54.812Z,9.430295
2023-10-09T01:08:54.702Z,9.430320
2023-10-09T01:09:54.687Z,9.430354
2023-10-09T01:10:54.677Z,9.430369
2023-10-09T01:11:54.674Z,9.430337
2023-10-09T01:12:54.703Z,9.430341
2023-10-09T01:13:54.771Z,9.430330
2023-10-09T01:14:54.642Z,9.430333
2023-10-09T01:15:54.646Z,9.430327
2023-10-09T01:16:54.593Z,9.430381
2023-10-09T01:17:54.669Z,9.430365
2023-10-09T01:18:54.661Z,9.430334
2023-10-09T01:19:54.569Z,9.430320
2023-10-09T01:20:54.579Z,9.430266
2023-10-09T01:21:54.559Z,9.430303
2023-10-09T01:22:54.555Z,9.430304
2023-10-09T01:23:54.594Z,9.430321
2023-10-09T01:24:54.526Z,9.430301
2023-10-09T01:25:54.499Z,9.430265
2023-10-09T01:26:54.504Z,9.430283
2023-10-09T01:27:54.509Z,9.430306
2023-10-09T01:28:54.507Z,9.430282
2023-10-09T01:29:54.595Z,9.430321
2023-10-09T01:30:54.456Z,9.430347
2023-10-09T01:31:54.455Z,9.430370
2023-10-09T01:32:54.507Z,9.430353
2023-10-09T01:33:54.454Z,9.430338
2023-10-09T01:34:54.436Z,9.430385
2023-10-09T01:35:54.457Z,9.430362
2023-10-09T01:36:54.379Z,9.430354
2023-10-09T01:37:54.380Z,9.430302
2023-10-09T01:38:54.432Z,9.430323
2023-10-09T01:39:54.349Z,9.430324
2023-10-09T01:40:54.347Z,9.430332
2023-10-09T01:41:54.386Z,9.430324
2023-10-09T01:42:54.342Z,9.430325
2023-10-09T01:43:54.309Z,9.430324
2023-10-09T01:44:54.335Z,9.430269
2023-10-09T01:45:54.342Z,9.430312
2023-10-09T01:46:54.277Z,9.430294
2023-10-09T01:47:54.320Z,9.430304
2023-10-09T01:48:54.286Z,9.430302
2023-10-09T01:49:54.255Z,9.430333
2023-10-09T01:50:54.290Z,9.430311
2023-10-09T01:51:54.254Z,9.430326
2023-10-09T01:52:54.239Z,9.430273
2023-10-09T01:53:54.234Z,9.430277
2023-10-09T01:54:54.246Z,9.430319
2023-10-09T01:55:54.212Z,9.430291
2023-10-09T01:56:54.178Z,9.430264
2023-10-09T01:57:55.217Z,9.430283
2023-10-09T01:58:54.136Z,9.430283
2023-10-09T01:59:54.583Z,9.430260
2023-10-09T02:00:54.124Z,9.430284
2023-10-09T02:01:54.122Z,9.430267
2023-10-09T02:02:54.234Z,9.430264
2023-10-09T02:03:54.169Z,9.430278
2023-10-09T02:04:54.141Z,9.430266
2023-10-09T02:05:54.106Z,9.430297
2023-10-09T02:06:54.143Z,9.430307
2023-10-09T02:07:54.225Z,9.430300
2023-10-09T02:08:54.044Z,9.430319
2023-10-09T02:09:54.036Z,9.430258
2023-10-09T02:10:54.011Z,9.430321
2023-10-09T02:11:56.722Z,9.430291
2023-10-09T02:12:53.996Z,9.430315
2023-10-09T02:13:53.993Z,9.430298
2023-10-09T02:14:54.016Z,9.430336
2023-10-09T02:15:54.036Z,9.430328
2023-10-09T02:16:53.967Z,9.430311
2023-10-09T02:17:53.973Z,9.430313
2023-10-09T02:18:54.333Z,9.430330
2023-10-09T02:19:53.910Z,9.430339
2023-10-09T02:20:53.923Z,9.430324
2023-10-09T02:21:53.950Z,9.430303
2023-10-09T02:22:53.873Z,9.430295
2023-10-09T02:23:54.768Z,9.430307
2023-10-09T02:24:53.845Z,9.430294
2023-10-09T02:25:53.840Z,9.430285
2023-10-09T02:26:53.839Z,9.430308
2023-10-09T02:27:53.903Z,9.430311
2023-10-09T02:28:53.815Z,9.430337
2023-10-09T02:29:53.800Z,9.430330
2023-10-09T02:30:53.817Z,9.430322
2023-10-09T02:31:53.798Z,9.430306
2023-10-09T02:32:53.861Z,9.430289
2023-10-09T02:33:53.754Z,9.430300
2023-10-09T02:34:53.906Z,9.430356
2023-10-09T02:35:53.736Z,9.430316
2023-10-09T02:36:53.718Z,9.430335
2023-10-09T02:37:53.731Z,9.430365
2023-10-09T02:38:53.716Z,9.430326
2023-10-09T02:39:53.794Z,9.430421
2023-10-09T02:40:53.679Z,9.430379
2023-10-09T02:41:53.701Z,9.430386
2023-10-09T02:42:53.662Z,9.430307
2023-10-09T02:43:53.651Z,9.430320
2023-10-09T02:44:53.661Z,9.430325
2023-10-09T02:45:53.619Z,9.430327
2023-10-09T02:46:53.667Z,9.430313
2023-10-09T02:47:53.661Z,9.430324
2023-10-09T02:48:53.598Z,9.430299
2023-10-09T02:49:53.594Z,9.430291
2023-10-09T02:50:53.582Z,9.430308
2023-10-09T02:51:53.554Z,9.430294
2023-10-09T02:52:53.558Z,9.430311
2023-10-09T02:53:53.534Z,9.430293
2023-10-09T02:54:53.539Z,9.430311
2023-10-09T02:55:53.600Z,9.430334
2023-10-09T02:56:53.505Z,9.430363
2023-10-09T02:57:53.610Z,9.430323
2023-10-09T02:58:53.498Z,9.430311
2023-10-09T02:59:53.566Z,9.430309
2023-10-09T03:00:53.460Z,9.430294
2023-10-09T03:01:53.442Z,9.430321
2023-10-09T03:02:53.515Z,9.430325
2023-10-09T03:03:53.497Z,9.430293
2023-10-09T03:04:53.495Z,9.430296
2023-10-09T03:05:53.418Z,9.430291
2023-10-09T03:06:53.426Z,9.430323
2023-10-09T03:07:54.444Z,9.430305
2023-10-09T03:08:54.618Z,9.430346
2023-10-09T03:09:53.736Z,9.430346
2023-10-09T03:10:53.884Z,9.430300
2023-10-09T03:11:54.012Z,9.430277
2023-10-09T03:12:53.702Z,9.430268
2023-10-09T03:13:54.083Z,9.430301
2023-10-09T03:14:53.384Z,9.430368
2023-10-09T03:15:53.414Z,9.430356
2023-10-09T03:16:53.933Z,9.430307
2023-10-09T03:17:53.710Z,9.430296
2023-10-09T03:18:53.339Z,9.430284
2023-10-09T03:19:53.531Z,9.430312
2023-10-09T03:20:53.320Z,9.430299
2023-10-09T03:21:53.342Z,9.430296
2023-10-09T03:22:53.363Z,9.430276
2023-10-09T03:23:53.901Z,9.430305
2023-10-09T03:24:54.252Z,9.430290
2023-10-09T03:25:59.174Z,9.430277
2023-10-09T03:26:55.517Z,9.430310
2023-10-09T03:27:53.321Z,9.430330
2023-10-09T03:28:54.308Z,9.430316
2023-10-09T03:29:53.348Z,9.430339
2023-10-09T03:30:54.758Z,9.430356
2023-10-09T03:31:54.412Z,9.430321
2023-10-09T03:32:53.469Z,9.430326
2023-10-09T03:33:53.178Z,9.430341
2023-10-09T03:34:53.142Z,9.430294
2023-10-09T03:35:53.398Z,9.430287
2023-10-09T03:36:53.508Z,9.430331
2023-10-09T03:37:53.163Z,9.430349
2023-10-09T03:38:53.929Z,9.430390
2023-10-09T03:39:53.094Z,9.430341
2023-10-09T03:40:53.112Z,9.430306
2023-10-09T03:41:53.088Z,9.430302
2023-10-09T03:42:53.077Z,9.430303
2023-10-09T03:43:53.096Z,9.430297
2023-10-09T03:44:53.092Z,9.430326
2023-10-09T03:45:53.036Z,9.430319
2023-10-09T03:46:53.036Z,9.430292
2023-10-09T03:47:53.040Z,9.430326
2023-10-09T03:48:52.978Z,9.430325
2023-10-09T03:49:52.981Z,9.430346
2023-10-09T03:50:52.981Z,9.430281
2023-10-09T03:51:53.075Z,9.430296
2023-10-09T03:52:56.269Z,9.430380
2023-10-09T03:53:53.999Z,9.430447
2023-10-09T03:54:52.945Z,9.430362
2023-10-09T03:55:52.936Z,9.430377
2023-10-09T03:56:52.904Z,9.430340
2023-10-09T03:57:52.882Z,9.430296
2023-10-09T03:58:52.932Z,9.430350
2023-10-09T03:59:53.015Z,9.430303
2023-10-09T04:00:53.001Z,9.430305
2023-10-09T04:01:52.870Z,9.430322
2023-10-09T04:02:54.072Z,9.430326
2023-10-09T04:03:52.923Z,9.430338
2023-10-09T04:04:53.519Z,9.430335
2023-10-09T04:05:53.414Z,9.430350
2023-10-09T04:06:52.844Z,9.430400
2023-10-09T04:07:52.989Z,9.430380
2023-10-09T04:08:52.750Z,9.430373
2023-10-09T04:09:53.329Z,9.430333
2023-10-09T04:10:56.819Z,9.430362
2023-10-09T04:11:54.154Z,9.430369
2023-10-09T04:12:54.688Z,9.430378
2023-10-09T04:13:52.698Z,9.430352
2023-10-09T04:14:52.711Z,9.430395
2023-10-09T04:15:52.740Z,9.430390
2023-10-09T04:16:52.679Z,9.430399
2023-10-09T04:17:52.754Z,9.430423
2023-10-09T04:18:53.778Z,9.430386
2023-10-09T04:19:52.645Z,9.430356
2023-10-09T04:20:52.674Z,9.430434
2023-10-09T04:21:52.610Z,9.430413
2023-10-09T04:22:52.853Z,9.430427
2023-10-09T04:23:52.602Z,9.430429
2023-10-09T04:24:52.609Z,9.430438
2023-10-09T04:25:52.550Z,9.430410
2023-10-09T04:26:52.701Z,9.430444
2023-10-09T04:27:52.703Z,9.430406
2023-10-09T04:28:52.780Z,9.430403
2023-10-09T04:29:52.888Z,9.430418
2023-10-09T04:30:52.566Z,9.430443
2023-10-09T04:31:52.824Z,9.430366
2023-10-09T04:32:52.556Z,9.430413
2023-10-09T04:33:52.496Z,9.430430
2023-10-09T04:34:52.617Z,9.430369
2023-10-09T04:35:52.655Z,9.430435
2023-10-09T04:36:52.871Z,9.430395
2023-10-09T04:37:53.420Z,9.430355
2023-10-09T04:38:52.453Z,9.430384
2023-10-09T04:39:52.720Z,9.430349
2023-10-09T04:40:53.640Z,9.430336
2023-10-09T04:41:53.021Z,9.430366
2023-10-09T04:42:53.215Z,9.430374
2023-10-09T04:43:52.558Z,9.430362
2023-10-09T04:44:52.974Z,9.430437
2023-10-09T04:45:52.362Z,9.430387
2023-10-09T04:46:52.587Z,9.430382
2023-10-09T04:47:52.553Z,9.430409
2023-10-09T04:48:52.331Z,9.430445
2023-10-09T04:49:52.291Z,9.430427
2023-10-09T04:50:52.443Z,9.430424
2023-10-09T04:51:52.446Z,9.430382
2023-10-09T04:52:52.621Z,9.430352
2023-10-09T04:53:52.261Z,9.430370
2023-10-09T04:54:52.561Z,9.430371
2023-10-09T04:55:52.243Z,9.430335
2023-10-09T04:56:52.386Z,9.430332
2023-10-09T04:57:52.286Z,9.430360
2023-10-09T04:58:52.193Z,9.430346
2023-10-09T04:59:52.666Z,9.430314
2023-10-09T05:00:52.659Z,9.430349
2023-10-09T05:01:52.352Z,9.430389
2023-10-09T05:02:52.611Z,9.430371
2023-10-09T05:03:52.538Z,9.430336
2023-10-09T05:04:52.429Z,9.430332
2023-10-09T05:05:52.469Z,9.430324
2023-10-09T05:06:52.480Z,9.430333
2023-10-09T05:07:52.450Z,9.430364
2023-10-09T05:08:52.245Z,9.430358
2023-10-09T05:09:52.092Z,9.430355
2023-10-09T05:10:52.090Z,9.430329
2023-10-09T05:11:52.410Z,9.430390
2023-10-09T05:12:52.087Z,9.430378
2023-10-09T05:13:52.151Z,9.430331
2023-10-09T05:14:53.016Z,9.430314
2023-10-09T05:15:52.372Z,9.430347
2023-10-09T05:16:52.080Z,9.430361
2023-10-09T05:17:52.237Z,9.430343
2023-10-09T05:18:52.040Z,9.430398
2023-10-09T05:19:52.518Z,9.430389
2023-10-09T05:20:52.176Z,9.430369
2023-10-09T05:21:52.644Z,9.430377
2023-10-09T05:22:52.360Z,9.430379
2023-10-09T05:23:52.216Z,9.430426
2023-10-09T05:24:51.999Z,9.430399
2023-10-09T05:25:52.027Z,9.430345
2023-10-09T05:26:52.480Z,9.430365
2023-10-09T05:27:52.406Z,9.430359
2023-10-09T05:28:52.113Z,9.430341
2023-10-09T05:29:52.397Z,9.430417
2023-10-09T05:30:51.926Z,9.430417
2023-10-09T05:31:51.945Z,9.430427
2023-10-09T05:32:52.092Z,9.430391
2023-10-09T05:33:53.844Z,9.430390
2023-10-09T05:34:52.002Z,9.430393
2023-10-09T05:35:51.807Z,9.430385
2023-10-09T05:36:51.820Z,9.430378
2023-10-09T05:37:52.013Z,9.430390
2023-10-09T05:38:52.532Z,9.430350
2023-10-09T05:39:52.307Z,9.430367
2023-10-09T05:40:51.773Z,9.430388
2023-10-09T05:41:51.736Z,9.430370
2023-10-09T05:42:51.767Z,9.430387
2023-10-09T05:43:51.798Z,9.430380
2023-10-09T05:44:51.932Z,9.430363
2023-10-09T05:45:52.262Z,9.430322
2023-10-09T05:46:51.693Z,9.430376
2023-10-09T05:47:51.750Z,9.430367
2023-10-09T05:48:52.306Z,9.430342
2023-10-09T05:49:51.993Z,9.430326
2023-10-09T05:50:51.721Z,9.430350
2023-10-09T05:51:51.684Z,9.430326
2023-10-09T05:52:51.645Z,9.430333
2023-10-09T05:53:51.623Z,9.430404
2023-10-09T05:54:51.790Z,9.430369
2023-10-09T05:55:52.887Z,9.430402
2023-10-09T05:56:51.550Z,9.430370
2023-10-09T05:57:51.816Z,9.430335
2023-10-09T05:58:51.939Z,9.430336
2023-10-09T05:59:51.811Z,9.430298
2023-10-09T06:00:52.389Z,9.430344
2023-10-09T06:01:51.665Z,9.430319
2023-10-09T06:03:01.206Z,9.430335
2023-10-09T06:03:53.610Z,9.430298
2023-10-09T06:04:51.834Z,9.430353
2023-10-09T06:05:51.572Z,9.430326
2023-10-09T06:06:51.605Z,9.430340
2023-10-09T06:07:51.535Z,9.430361
2023-10-09T06:08:51.511Z,9.430340
2023-10-09T06:09:52.492Z,9.430294
2023-10-09T06:10:51.549Z,9.430335
2023-10-09T06:11:51.661Z,9.430318
2023-10-09T06:12:54.734Z,9.430356
2023-10-09T06:13:52.679Z,9.430361
2023-10-09T06:14:51.393Z,9.430379
2023-10-09T06:15:51.416Z,9.430335
2023-10-09T06:16:51.451Z,9.430333
2023-10-09T06:17:51.513Z,9.430305
2023-10-09T06:18:51.405Z,9.430284
2023-10-09T06:19:51.420Z,9.430338
2023-10-09T06:20:51.369Z,9.430373
2023-10-09T06:21:51.374Z,9.430367
2023-10-09T06:22:51.417Z,9.430344
2023-10-09T06:23:51.316Z,9.430342
2023-10-09T06:24:51.384Z,9.430372
2023-10-09T06:25:51.299Z,9.430374
2023-10-09T06:26:52.329Z,9.430378
2023-10-09T06:27:51.575Z,9.430349
2023-10-09T06:28:51.389Z,9.430333
2023-10-09T06:29:51.264Z,9.430327
2023-10-09T06:30:51.555Z,9.430337
2023-10-09T06:31:52.487Z,9.430366
2023-10-09T06:32:51.947Z,9.430381
2023-10-09T06:33:51.665Z,9.430357
2023-10-09T06:34:52.456Z,9.430371
2023-10-09T06:35:51.629Z,9.430354
2023-10-09T06:36:51.132Z,9.430362
2023-10-09T06:37:51.168Z,9.430372
2023-10-09T06:38:52.072Z,9.430376
2023-10-09T06:39:53.044Z,9.430352
2023-10-09T06:40:51.712Z,9.430377
2023-10-09T06:41:51.118Z,9.430355
2023-10-09T06:42:51.439Z,9.430343
2023-10-09T06:43:51.187Z,9.430357
2023-10-09T06:44:51.815Z,9.430351
2023-10-09T06:45:56.965Z,9.430365
2023-10-09T06:46:51.309Z,9.430349
2023-10-09T06:47:52.298Z,9.430355
2023-10-09T06:48:51.043Z,9.430337
2023-10-09T06:49:51.977Z,9.430384
2023-10-09T06:50:51.935Z,9.430389
2023-10-09T06:51:52.172Z,9.430385
2023-10-09T06:52:52.507Z,9.430363
2023-10-09T06:53:52.188Z,9.430344
2023-10-09T06:54:52.055Z,9.430346
2023-10-09T06:55:52.997Z,9.430329
2023-10-09T06:56:52.590Z,9.430350
2023-10-09T06:57:52.312Z,9.430351
2023-10-09T06:58:50.908Z,9.430349
2023-10-09T06:59:53.395Z,9.430378
2023-10-09T07:00:50.982Z,9.430371
2023-10-09T07:01:51.031Z,9.430387
2023-10-09T07:02:50.998Z,9.430397
2023-10-09T07:03:51.830Z,9.430374
2023-10-09T07:04:52.088Z,9.430368
2023-10-09T07:05:51.236Z,9.430357
2023-10-09T07:06:51.839Z,9.430347
2023-10-09T07:07:54.700Z,9.430350
2023-10-09T07:08:50.866Z,9.430351
2023-10-09T07:09:51.353Z,9.430355
2023-10-09T07:10:53.177Z,9.430338
2023-10-09T07:11:51.886Z,9.430355
2023-10-09T07:12:51.859Z,9.430376
2023-10-09T07:13:51.797Z,9.430375
2023-10-09T07:14:52.023Z,9.430370
2023-10-09T07:15:53.832Z,9.430369
2023-10-09T07:16:50.804Z,9.430370
2023-10-09T07:17:50.766Z,9.430367
2023-10-09T07:18:51.164Z,9.430337
2023-10-09T07:19:50.736Z,9.430325
2023-10-09T07:20:50.731Z,9.430348
2023-10-09T07:21:50.713Z,9.430344
2023-10-09T07:22:50.718Z,9.430323
2023-10-09T07:23:50.729Z,9.430363
2023-10-09T07:24:50.791Z,9.430372
2023-10-09T07:25:50.642Z,9.430338
2023-10-09T07:26:50.687Z,9.430348
2023-10-09T07:27:51.362Z,9.430344
2023-10-09T07:28:50.655Z,9.430343
2023-10-09T07:29:50.674Z,9.430345
2023-10-09T07:30:50.632Z,9.430361
2023-10-09T07:31:50.662Z,9.430331
2023-10-09T07:32:50.634Z,9.430391
2023-10-09T07:33:50.610Z,9.430373
2023-10-09T07:34:50.653Z,9.430346
2023-10-09T07:35:50.632Z,9.430371
2023-10-09T07:36:50.628Z,9.430367
2023-10-09T07:37:50.590Z,9.430356
2023-10-09T07:38:50.516Z,9.430386
2023-10-09T07:39:50.571Z,9.430384
2023-10-09T07:40:51.031Z,9.430351
2023-10-09T07:41:50.517Z,9.430329
2023-10-09T07:42:51.185Z,9.430326
2023-10-09T07:43:50.491Z,9.430368
2023-10-09T07:44:50.487Z,9.430361
2023-10-09T07:45:50.561Z,9.430390
2023-10-09T07:46:50.462Z,9.430372
2023-10-09T07:47:50.529Z,9.430378
2023-10-09T07:48:50.445Z,9.430355
2023-10-09T07:49:50.461Z,9.430317
2023-10-09T07:50:50.579Z,9.430299
2023-10-09T07:51:50.593Z,9.430328
2023-10-09T07:52:50.392Z,9.430359
2023-10-09T07:53:51.048Z,9.430311
2023-10-09T07:54:50.391Z,9.430327
2023-10-09T07:55:50.551Z,9.430358
2023-10-09T07:56:50.370Z,9.430370
2023-10-09T07:57:50.462Z,9.430361
2023-10-09T07:58:50.864Z,9.430338
2023-10-09T07:59:50.326Z,9.430355
2023-10-09T08:00:50.384Z,9.430356
2023-10-09T08:01:50.301Z,9.430348
2023-10-09T08:02:50.347Z,9.430332
2023-10-09T08:03:50.685Z,9.430351
2023-10-09T08:04:51.340Z,9.430367
2023-10-09T08:05:50.300Z,9.430321
2023-10-09T08:07:04.613Z,9.430320
2023-10-09T08:08:05.330Z,9.430346
2023-10-09T08:08:51.285Z,9.430323
2023-10-09T08:09:50.310Z,9.430330
2023-10-09T08:10:50.213Z,9.430315
2023-10-09T08:11:50.201Z,9.430311
2023-10-09T08:12:50.382Z,9.430340
2023-10-09T08:13:50.444Z,9.430350
2023-10-09T08:14:50.203Z,9.430336
2023-10-09T08:15:50.351Z,9.430338
2023-10-09T08:16:50.406Z,9.430344
2023-10-09T08:17:50.228Z,9.430337
2023-10-09T08:18:51.166Z,9.430324
2023-10-09T08:19:50.117Z,9.430346
2023-10-09T08:20:50.329Z,9.430318
2023-10-09T08:21:50.095Z,9.430356
2023-10-09T08:22:50.075Z,9.430359
2023-10-09T08:23:50.055Z,9.430367
2023-10-09T08:24:50.122Z,9.430350
2023-10-09T08:25:50.026Z,9.430356
2023-10-09T08:26:50.051Z,9.430373
2023-10-09T08:27:50.049Z,9.430395
2023-10-09T08:28:50.359Z,9.430394
2023-10-09T08:29:50.166Z,9.430372
2023-10-09T08:30:50.531Z,9.430382
2023-10-09T08:31:49.982Z,9.430358
2023-10-09T08:35:51.180Z,9.430358
2023-10-09T08:36:50.018Z,9.430336
2023-10-09T08:37:50.433Z,9.430386
2023-10-09T08:38:49.889Z,9.430381
2023-10-09T08:39:49.942Z,9.430392
2023-10-09T08:40:49.979Z,9.430355
2023-10-09T08:41:49.878Z,9.430395
2023-10-09T08:42:49.876Z,9.430376
2023-10-09T08:43:49.869Z,9.430316
2023-10-09T08:44:50.864Z,9.430357
2023-10-09T08:45:49.860Z,9.430363
2023-10-09T08:46:49.861Z,9.430384
2023-10-09T08:47:50.174Z,9.430350
2023-10-09T08:48:49.909Z,9.430343
2023-10-09T08:49:49.824Z,9.430373
2023-10-09T08:50:50.148Z,9.430355
2023-10-09T08:51:50.394Z,9.430324
2023-10-09T08:52:49.766Z,9.430306
2023-10-09T08:53:49.727Z,9.430323
2023-10-09T08:54:49.780Z,9.430329
2023-10-09T08:55:49.807Z,9.430336
2023-10-09T08:56:49.720Z,9.430338
2023-10-09T08:57:49.991Z,9.430352
2023-10-09T08:58:49.689Z,9.430304
2023-10-09T08:59:49.810Z,9.430323
2023-10-09T09:00:49.809Z,9.430307
2023-10-09T09:01:49.714Z,9.430363
2023-10-09T09:02:49.819Z,9.430326
2023-10-09T09:03:49.711Z,9.430355
2023-10-09T09:04:49.696Z,9.430360
2023-10-09T09:05:49.644Z,9.430377
2023-10-09T09:06:49.763Z,9.430344
2023-10-09T09:07:50.084Z,9.430376
2023-10-09T09:08:49.572Z,9.430354
2023-10-09T09:09:49.664Z,9.430367
2023-10-09T09:10:49.904Z,9.430378
2023-10-09T09:11:49.673Z,9.430376
2023-10-09T09:12:49.684Z,9.430351
2023-10-09T09:13:49.709Z,9.430360
2023-10-09T09:14:49.528Z,9.430332
2023-10-09T09:15:49.503Z,9.430306
2023-10-09T09:16:49.693Z,9.430376
2023-10-09T09:17:49.587Z,9.430311
2023-10-09T09:18:49.775Z,9.430311
2023-10-09T09:19:49.646Z,9.430293
2023-10-09T09:20:49.448Z,9.430374
2023-10-09T09:21:49.442Z,9.430433
2023-10-09T09:22:49.469Z,9.430429
2023-10-09T09:23:49.765Z,9.430429
2023-10-09T09:24:49.400Z,9.430466
2023-10-09T09:25:49.719Z,9.430442
2023-10-09T09:26:49.468Z,9.430489
2023-10-09T09:27:50.215Z,9.430488
2023-10-09T09:28:49.419Z,9.430425
2023-10-09T09:29:49.501Z,9.430406
2023-10-09T09:30:49.519Z,9.430346
2023-10-09T09:31:49.407Z,9.430399
2023-10-09T09:32:49.386Z,9.430418
2023-10-09T09:33:49.454Z,9.430392
2023-10-09T09:34:49.501Z,9.430303
2023-10-09T09:35:50.067Z,9.430319
2023-10-09T09:36:49.401Z,9.430391
2023-10-09T09:37:49.623Z,9.430443
2023-10-09T09:38:49.810Z,9.430342
2023-10-09T09:39:55.893Z,9.430310
2023-10-09T09:40:51.296Z,9.430300
2023-10-09T09:41:49.256Z,9.430325
2023-10-09T09:42:49.220Z,9.430333
2023-10-09T09:43:49.281Z,9.430365
2023-10-09T09:44:49.181Z,9.430378
2023-10-09T09:45:49.209Z,9.430360
2023-10-09T09:46:49.264Z,9.430317
2023-10-09T09:47:49.286Z,9.430346
2023-10-09T09:48:49.129Z,9.430376
2023-10-09T09:49:49.190Z,9.430375
2023-10-09T09:50:49.172Z,9.430355
2023-10-09T09:51:49.263Z,9.430348
2023-10-09T09:52:49.135Z,9.430330
2023-10-09T09:53:49.108Z,9.430326
2023-10-09T09:54:49.166Z,9.430373
2023-10-09T09:55:49.231Z,9.430385
2023-10-09T09:56:49.063Z,9.430370
2023-10-09T09:57:49.090Z,9.430347
2023-10-09T09:58:49.035Z,9.430401
2023-10-09T09:59:49.170Z,9.430379
2023-10-09T10:00:49.144Z,9.430344
2023-10-09T10:01:49.175Z,9.430370
2023-10-09T10:02:49.157Z,9.430378
2023-10-09T10:03:48.974Z,9.430367
2023-10-09T10:04:49.062Z,9.430298
2023-10-09T10:05:48.956Z,9.430382
2023-10-09T10:06:48.987Z,9.430385
2023-10-09T10:07:48.999Z,9.430387
2023-10-09T10:08:48.952Z,9.430404
2023-10-09T10:09:48.950Z,9.430402
2023-10-09T10:10:49.222Z,9.430408
2023-10-09T10:11:48.867Z,9.430392
2023-10-09T10:12:48.919Z,9.430370
2023-10-09T10:13:48.907Z,9.430366
2023-10-09T10:14:48.845Z,9.430376
2023-10-09T10:15:48.851Z,9.430365
2023-10-09T10:16:48.905Z,9.430364
2023-10-09T10:17:48.915Z,9.430361
2023-10-09T10:18:49.633Z,9.430383
2023-10-09T10:19:48.796Z,9.430395
2023-10-09T10:20:49.590Z,9.430378
2023-10-09T10:21:49.618Z,9.430361
2023-10-09T10:22:48.788Z,9.430358
2023-10-09T10:23:49.056Z,9.430349
2023-10-09T10:24:48.706Z,9.430354
2023-10-09T10:25:48.726Z,9.430362
2023-10-09T10:26:48.723Z,9.430378
2023-10-09T10:27:48.657Z,9.430363
2023-10-09T10:28:49.127Z,9.430397
2023-10-09T10:29:48.635Z,9.430379
2023-10-09T10:30:49.132Z,9.430346
2023-10-09T10:31:49.121Z,9.430355
2023-10-09T10:32:48.811Z,9.430363
2023-10-09T10:33:48.843Z,9.430375
2023-10-09T10:34:50.163Z,9.430347
2023-10-09T10:35:48.813Z,9.430312
2023-10-09T10:36:48.641Z,9.430351
2023-10-09T10:37:48.944Z,9.430339
2023-10-09T10:38:48.593Z,9.430372
2023-10-09T10:39:48.670Z,9.430367
2023-10-09T10:40:48.823Z,9.430366
2023-10-09T10:41:48.637Z,9.430300
2023-10-09T10:42:48.880Z,9.430306
2023-10-09T10:43:48.968Z,9.430408
2023-10-09T10:44:48.824Z,9.430362
2023-10-09T10:45:48.681Z,9.430361
2023-10-09T10:46:48.521Z,9.430361
2023-10-09T10:47:48.469Z,9.430341
2023-10-09T10:48:48.530Z,9.430351
2023-10-09T10:49:48.780Z,9.430364
2023-10-09T10:50:48.478Z,9.430352
2023-10-09T10:51:48.663Z,9.430371
2023-10-09T10:52:48.621Z,9.430369
2023-10-09T10:53:48.989Z,9.430387
2023-10-09T10:54:49.172Z,9.430398
2023-10-09T10:55:50.740Z,9.430357
2023-10-09T10:56:48.544Z,9.430327
2023-10-09T10:57:49.851Z,9.430369
2023-10-09T10:58:48.782Z,9.430312
2023-10-09T10:59:48.667Z,9.430302
2023-10-09T11:00:48.498Z,9.430340
2023-10-09T11:01:48.857Z,9.430375
2023-10-09T11:02:48.650Z,9.430370
2023-10-09T11:03:48.585Z,9.430341
2023-10-09T11:04:48.625Z,9.430368
2023-10-09T11:05:48.290Z,9.430366
2023-10-09T11:06:48.431Z,9.430389
2023-10-09T11:07:48.454Z,9.430349
2023-10-09T11:08:48.486Z,9.430346
2023-10-09T11:09:53.059Z,9.430331
2023-10-09T11:10:50.232Z,9.430364
2023-10-09T11:11:48.259Z,9.430351
2023-10-09T11:12:48.364Z,9.430346
2023-10-09T11:13:48.810Z,9.430396
2023-10-09T11:14:48.495Z,9.430383
2023-10-09T11:15:48.253Z,9.430363
2023-10-09T11:16:48.249Z,9.430389
2023-10-09T11:17:48.224Z,9.430326
2023-10-09T11:18:48.086Z,9.430340
2023-10-09T11:19:48.193Z,9.430322
2023-10-09T11:20:48.418Z,9.430346
2023-10-09T11:21:48.105Z,9.430321
2023-10-09T11:22:48.300Z,9.430348
2023-10-09T11:23:49.156Z,9.430356
2023-10-09T11:24:48.675Z,9.430363
2023-10-09T11:25:48.424Z,9.430348
2023-10-09T11:26:48.036Z,9.430357
2023-10-09T11:27:48.053Z,9.430304
2023-10-09T11:28:48.196Z,9.430313
2023-10-09T11:29:47.977Z,9.430347
2023-10-09T11:30:48.082Z,9.430322
2023-10-09T11:31:48.668Z,9.430285
2023-10-09T11:32:48.160Z,9.430338
2023-10-09T11:33:47.943Z,9.430297
2023-10-09T11:34:48.072Z,9.430313
2023-10-09T11:35:47.901Z,9.430316
2023-10-09T11:36:47.898Z,9.430332
2023-10-09T11:37:47.927Z,9.430342
2023-10-09T11:38:47.826Z,9.430345
2023-10-09T11:39:47.986Z,9.430324
2023-10-09T11:40:48.081Z,9.430343
2023-10-09T11:41:48.911Z,9.430337
2023-10-09T11:42:47.946Z,9.430361
2023-10-09T11:43:48.504Z,9.430344
2023-10-09T11:44:48.048Z,9.430285
2023-10-09T11:45:49.058Z,9.430343
2023-10-09T11:46:47.806Z,9.430344
2023-10-09T11:47:48.020Z,9.430351